Bucks Harbor, Maine
Current Conditions -  °F | °C
As of 3:55 AM on Monday 20 Oct 2014 (Local Time) from KBHB Reporting Station
Clear Clear  
Wind Chill: 34°   Ceiling: Unl
Heat Index: 39°   Visibility: 10mi
Dew Point: 30°   Wind: 7mph
Humidity: 70%   Direction: 310°NW
Pressure: 29.84"   Gusts: NA
Location:  44.6541°N, 67.405°W
Report Text: KBHB 200755Z AUTO 31006KT 10SM CLR 04/M01 A2984 RMK AO1
Loading
Personal Weather Stations






























Interactive Weather Map New forecast layout! Learn more

10-Day Weather Forecast

Advertisements
Track Severe Weather on mobile